Time;durP1;ratioP1;P1;durP2;ratioP2;P2;SDS_P1;SDS_P2;PMS_P1;PMS_P2;Temp;Humidity;BMP_temperature;BMP_pressure;BME280_temperature;BME280_humidity;BME280_pressure;Samples;Min_cycle;Max_cycle;Signal;HPM_P1;HPM_P2
2024/01/21 00:01:20;;;;;;;33.17;10.80;;;-2.10;99.90;;;;;;4427254;28;659532;-73
2024/01/21 00:04:08;;;;;;;27.37;9.23;;;-2.10;99.90;;;;;;4429551;28;658600;-73
2024/01/21 00:06:55;;;;;;;31.17;10.23;;;-2.10;99.90;;;;;;4455692;28;658091;-73
2024/01/21 00:09:43;;;;;;;30.07;12.13;;;-2.10;99.90;;;;;;4437821;28;659022;-74
2024/01/21 00:12:30;;;;;;;32.85;10.15;;;-2.10;99.90;;;;;;4457872;28;657903;-73
2024/01/21 00:15:19;;;;;;;31.77;10.23;;;-2.20;99.90;;;;;;4440134;28;658685;-73
2024/01/21 00:18:06;;;;;;;24.43;10.53;;;-2.30;99.90;;;;;;4441818;28;658320;-74
2024/01/21 00:20:53;;;;;;;40.07;14.03;;;-2.30;99.90;;;;;;4430351;28;658982;-73
2024/01/21 00:23:40;;;;;;;14.67;5.67;;;-2.30;99.90;;;;;;4456947;28;658514;-74
2024/01/21 00:26:27;;;;;;;33.58;12.07;;;-2.20;99.90;;;;;;4425978;28;657867;-73
2024/01/21 00:29:16;;;;;;;32.60;13.00;;;-2.20;99.90;;;;;;4446628;28;658877;-74
2024/01/21 00:32:05;;;;;;;24.70;10.77;;;-2.20;99.90;;;;;;4425953;28;658727;-73
2024/01/21 00:34:52;;;;;;;35.85;13.38;;;-2.30;99.90;;;;;;4436341;28;658787;-73
2024/01/21 00:37:40;;;;;;;34.87;12.33;;;-2.30;99.90;;;;;;4445989;28;658971;-73
2024/01/21 00:40:27;;;;;;;32.50;12.30;;;-2.20;99.90;;;;;;4447939;28;657884;-73
2024/01/21 00:43:14;;;;;;;34.73;12.23;;;-2.20;99.90;;;;;;4427375;28;658989;-73
2024/01/21 00:46:04;;;;;;;33.17;12.37;;;-2.30;99.90;;;;;;4456319;28;658605;-74
2024/01/21 00:48:53;;;;;;;31.90;12.83;;;-2.30;99.90;;;;;;4429816;28;659094;-74
2024/01/21 00:51:40;;;;;;;27.60;12.37;;;-2.30;99.90;;;;;;4422871;28;659003;-74
2024/01/21 00:54:28;;;;;;;31.70;13.40;;;-2.30;99.90;;;;;;4436938;28;658501;-73
2024/01/21 00:57:15;;;;;;;34.67;12.43;;;-2.30;99.90;;;;;;4453057;28;659041;-74
2024/01/21 01:00:04;;;;;;;27.03;11.30;;;-2.30;99.90;;;;;;4448370;28;658794;-74
2024/01/21 01:02:51;;;;;;;39.97;12.33;;;-2.30;99.90;;;;;;4454205;28;658248;-74
2024/01/21 01:05:40;;;;;;;32.78;9.52;;;-2.30;99.90;;;;;;4427503;28;658962;-73
2024/01/21 01:08:27;;;;;;;37.30;14.40;;;-2.30;99.90;;;;;;4445506;28;658016;-73
2024/01/21 01:11:14;;;;;;;40.50;13.38;;;-2.30;99.90;;;;;;4453826;28;658641;-74
2024/01/21 01:14:02;;;;;;;31.13;13.60;;;-2.20;99.90;;;;;;4443985;28;658366;-74
2024/01/21 01:16:50;;;;;;;33.20;12.90;;;-2.20;99.90;;;;;;4420046;28;659587;-73
2024/01/21 01:19:37;;;;;;;38.40;14.10;;;-2.10;99.90;;;;;;4456366;28;658492;-74
2024/01/21 01:22:25;;;;;;;31.13;11.37;;;-2.20;99.90;;;;;;4438282;28;659215;-74
2024/01/21 01:25:12;;;;;;;36.75;13.77;;;-2.10;99.90;;;;;;4429076;28;659001;-73
2024/01/21 01:28:00;;;;;;;30.47;12.53;;;-2.20;99.90;;;;;;4457356;28;659539;-74
2024/01/21 01:30:47;;;;;;;9.33;3.50;;;-2.10;99.90;;;;;;4458888;27;659000;-74
2024/01/21 01:33:34;;;;;;;39.03;14.57;;;-2.10;99.90;;;;;;4438433;28;656756;-74
2024/01/21 01:36:21;;;;;;;35.73;13.90;;;-2.10;99.90;;;;;;4448632;28;658225;-74
2024/01/21 01:39:10;;;;;;;35.67;14.40;;;-2.10;99.90;;;;;;4426402;28;658697;-74
2024/01/21 01:41:57;;;;;;;34.27;14.23;;;-2.00;99.90;;;;;;4450320;27;658453;-73
2024/01/21 01:44:45;;;;;;;36.13;12.60;;;-2.00;99.90;;;;;;4446382;28;659237;-74
2024/01/21 01:47:32;;;;;;;22.63;8.27;;;-2.00;99.90;;;;;;4456084;27;658296;-74
2024/01/21 01:50:19;;;;;;;31.87;11.67;;;-2.00;99.90;;;;;;4433669;27;657926;-74
2024/01/21 01:53:06;;;;;;;32.77;12.40;;;-2.00;99.90;;;;;;4451972;28;658587;-74
2024/01/21 01:55:55;;;;;;;31.43;12.00;;;-2.00;99.90;;;;;;4430892;28;659067;-74
2024/01/21 01:58:42;;;;;;;33.10;12.77;;;-2.00;99.90;;;;;;4447081;28;658816;-73
2024/01/21 02:01:30;;;;;;;32.07;11.33;;;-2.00;99.90;;;;;;4454160;28;659865;-74
2024/01/21 02:04:17;;;;;;;35.87;13.30;;;-2.00;99.90;;;;;;4454812;28;658816;-74
2024/01/21 02:07:05;;;;;;;33.67;14.93;;;-1.90;99.90;;;;;;4457722;28;658605;-74
2024/01/21 02:09:52;;;;;;;34.73;13.40;;;-2.00;99.90;;;;;;4457017;28;659393;-74
2024/01/21 02:12:43;;;;;;;28.80;12.27;;;-1.90;99.90;;;;;;4433639;27;658903;-74
2024/01/21 02:15:30;;;;;;;28.70;12.63;;;-1.80;99.90;;;;;;4426485;27;658939;-74
2024/01/21 02:18:18;;;;;;;41.63;13.50;;;-1.80;99.90;;;;;;4433073;28;658799;-74
2024/01/21 02:21:06;;;;;;;35.55;12.88;;;-1.80;99.90;;;;;;4444284;28;659135;-74
2024/01/21 02:23:54;;;;;;;31.20;12.30;;;-1.80;99.90;;;;;;4433920;28;658571;-74
2024/01/21 02:26:41;;;;;;;38.90;13.90;;;-1.80;99.90;;;;;;4455095;27;658908;-74
2024/01/21 02:29:28;;;;;;;33.97;13.93;;;-1.80;99.90;;;;;;4435657;27;658636;-74
2024/01/21 02:32:15;;;;;;;40.75;13.52;;;-1.90;99.90;;;;;;4447174;28;658633;-73
2024/01/21 02:35:03;;;;;;;37.30;12.93;;;-1.80;99.90;;;;;;4430364;28;658863;-73
2024/01/21 02:37:50;;;;;;;33.33;13.23;;;-1.80;99.90;;;;;;4449915;28;659333;-74
2024/01/21 02:40:39;;;;;;;44.87;13.37;;;-1.80;99.90;;;;;;4434884;28;658998;-73
2024/01/21 02:43:26;;;;;;;33.10;8.60;;;-1.80;99.90;;;;;;4452767;27;659140;-74
2024/01/21 02:46:13;;;;;;;29.73;10.13;;;-1.80;99.90;;;;;;4426996;28;657623;-73
2024/01/21 02:49:01;;;;;;;36.60;13.63;;;-1.70;99.90;;;;;;4438560;28;659614;-74
2024/01/21 02:51:48;;;;;;;34.93;13.00;;;-1.70;99.90;;;;;;4428605;28;659137;-74
2024/01/21 02:54:35;;;;;;;43.33;13.10;;;-1.80;99.90;;;;;;4442885;28;660181;-73
2024/01/21 02:57:24;;;;;;;34.73;12.13;;;-1.80;99.90;;;;;;4435238;28;658976;-74
2024/01/21 03:00:12;;;;;;;34.33;13.10;;;-1.80;99.90;;;;;;4445478;27;658931;-75
2024/01/21 03:02:59;;;;;;;36.03;13.23;;;-1.80;99.90;;;;;;4422563;27;659324;-74
2024/01/21 03:05:46;;;;;;;36.33;12.07;;;-1.70;99.90;;;;;;4452675;28;658314;-74
2024/01/21 03:08:33;;;;;;;32.70;12.02;;;-1.60;99.90;;;;;;4432122;27;659111;-74
2024/01/21 03:11:21;;;;;;;31.90;12.40;;;-1.60;99.90;;;;;;4447400;28;659041;-74
2024/01/21 03:14:09;;;;;;;32.70;13.27;;;-1.70;99.90;;;;;;4424668;28;658936;-73
2024/01/21 03:16:56;;;;;;;34.07;13.53;;;-1.70;99.90;;;;;;4444232;28;658294;-74
2024/01/21 03:19:44;;;;;;;31.20;12.47;;;-1.60;99.90;;;;;;4433417;28;659349;-73
2024/01/21 03:22:31;;;;;;;36.37;12.63;;;-1.70;99.90;;;;;;4448788;28;658392;-74
2024/01/21 03:25:18;;;;;;;30.73;13.00;;;-1.70;99.90;;;;;;4419992;28;658447;-74
2024/01/21 03:28:06;;;;;;;36.50;13.43;;;-1.60;99.90;;;;;;4446800;28;658755;-74
2024/01/21 03:30:55;;;;;;;34.40;13.70;;;-1.60;99.90;;;;;;4424126;28;658993;-74
2024/01/21 03:33:42;;;;;;;36.13;14.03;;;-1.70;99.90;;;;;;4455493;28;658568;-75
2024/01/21 03:36:29;;;;;;;34.33;13.60;;;-1.70;99.90;;;;;;4428438;28;658794;-73
2024/01/21 03:39:16;;;;;;;33.73;12.67;;;-1.70;99.90;;;;;;4451685;28;658186;-74
2024/01/21 03:42:04;;;;;;;35.53;13.17;;;-1.60;99.90;;;;;;4426878;28;658999;-75
2024/01/21 03:44:51;;;;;;;32.80;11.73;;;-1.70;99.90;;;;;;4444263;28;659742;-74
2024/01/21 03:47:39;;;;;;;30.63;12.33;;;-1.70;99.90;;;;;;4432155;28;658708;-74
2024/01/21 03:50:27;;;;;;;31.13;12.93;;;-1.70;99.90;;;;;;4450860;28;658569;-73
2024/01/21 03:53:14;;;;;;;28.97;11.97;;;-1.80;99.90;;;;;;4426800;28;658973;-74
2024/01/21 03:56:01;;;;;;;32.83;12.40;;;-1.70;99.90;;;;;;4448196;28;658771;-74
2024/01/21 03:58:48;;;;;;;34.80;13.40;;;-1.70;99.90;;;;;;4430041;28;658572;-74
2024/01/21 04:01:35;;;;;;;30.73;11.23;;;-1.70;99.90;;;;;;4447668;28;659197;-74
2024/01/21 04:04:24;;;;;;;37.73;13.30;;;-1.70;99.90;;;;;;4433068;27;658412;-73
2024/01/21 04:07:11;;;;;;;30.30;12.67;;;-1.70;99.90;;;;;;4441331;28;658355;-74
2024/01/21 04:09:58;;;;;;;32.67;13.03;;;-1.70;99.90;;;;;;4433528;28;658914;-73
2024/01/21 04:12:45;;;;;;;14.60;5.32;;;-1.70;99.90;;;;;;4454830;28;659203;-74
2024/01/21 04:15:34;;;;;;;31.97;13.10;;;-1.60;99.90;;;;;;4425628;28;657653;-73
2024/01/21 04:18:21;;;;;;;31.70;12.43;;;-1.60;99.90;;;;;;4439893;28;659454;-73
2024/01/21 04:21:10;;;;;;;31.07;12.20;;;-1.60;99.90;;;;;;4426493;28;659665;-74
2024/01/21 04:23:57;;;;;;;34.90;13.10;;;-1.60;99.90;;;;;;4448556;28;658886;-73
2024/01/21 04:26:45;;;;;;;32.20;13.37;;;-1.60;99.90;;;;;;4456181;28;659330;-74
2024/01/21 04:29:32;;;;;;;38.13;14.10;;;-1.70;99.90;;;;;;4443023;28;658325;-75
2024/01/21 04:32:19;;;;;;;36.70;13.27;;;-1.70;99.90;;;;;;4429793;28;658814;-75
2024/01/21 04:35:07;;;;;;;30.00;12.30;;;-1.70;99.90;;;;;;4458105;28;658663;-74
2024/01/21 04:37:56;;;;;;;29.63;13.07;;;-1.70;99.90;;;;;;4419005;28;658944;-74
2024/01/21 04:40:43;;;;;;;33.87;14.57;;;-1.70;99.90;;;;;;4435707;28;658402;-73
2024/01/21 04:43:30;;;;;;;44.23;13.53;;;-1.70;99.90;;;;;;4458108;28;658767;-75
2024/01/21 04:46:17;;;;;;;30.73;13.25;;;-1.70;99.90;;;;;;4431766;28;658363;-73
2024/01/21 04:49:05;;;;;;;37.03;13.40;;;-1.60;99.90;;;;;;4449397;28;658982;-74
2024/01/21 04:51:52;;;;;;;34.33;14.07;;;-1.60;99.90;;;;;;4442641;28;660645;-74
2024/01/21 04:54:40;;;;;;;34.47;12.23;;;-1.60;99.90;;;;;;4435456;28;659360;-73
2024/01/21 04:57:28;;;;;;;34.70;12.90;;;-1.50;99.90;;;;;;4439970;27;658531;-73
2024/01/21 05:00:16;;;;;;;29.07;12.93;;;-1.50;99.90;;;;;;4452478;28;659203;-74
2024/01/21 05:03:03;;;;;;;31.17;11.87;;;-1.50;99.90;;;;;;4438030;28;658803;-74
2024/01/21 05:05:51;;;;;;;28.73;12.07;;;-1.40;99.90;;;;;;4458465;28;659105;-74
2024/01/21 05:08:39;;;;;;;29.93;13.00;;;-1.40;99.90;;;;;;4429576;28;658795;-74
2024/01/21 05:11:29;;;;;;;29.57;12.97;;;-1.60;99.90;;;;;;4441934;27;659131;-74
2024/01/21 05:14:16;;;;;;;32.83;12.73;;;-1.60;99.90;;;;;;4435414;27;658508;-74
2024/01/21 05:17:04;;;;;;;31.43;12.10;;;-1.60;99.90;;;;;;4423860;28;659406;-74
2024/01/21 05:19:51;;;;;;;38.80;12.97;;;-1.60;99.90;;;;;;4458421;28;659002;-74
2024/01/21 05:22:38;;;;;;;39.63;12.50;;;-1.60;99.90;;;;;;4427529;28;658690;-74
2024/01/21 05:25:25;;;;;;;30.60;12.50;;;-1.50;99.90;;;;;;4454435;28;659615;-74
2024/01/21 05:28:14;;;;;;;33.97;12.70;;;-1.60;99.90;;;;;;4425339;28;658494;-74
2024/01/21 05:31:02;;;;;;;25.50;12.13;;;-1.50;99.90;;;;;;4463759;28;658019;-74
2024/01/21 05:33:49;;;;;;;32.40;13.10;;;-1.60;99.90;;;;;;4431246;28;658628;-74
2024/01/21 05:36:36;;;;;;;32.97;12.90;;;-1.60;99.90;;;;;;4447011;28;658735;-74
2024/01/21 05:39:24;;;;;;;30.53;12.40;;;-1.60;99.90;;;;;;4421586;28;658459;-74
2024/01/21 05:42:11;;;;;;;28.00;11.83;;;-1.50;99.90;;;;;;4448473;28;658841;-74
2024/01/21 05:44:59;;;;;;;30.63;12.70;;;-1.50;99.90;;;;;;4429820;28;658731;-74
2024/01/21 05:47:46;;;;;;;36.47;13.40;;;-1.60;99.90;;;;;;4460601;28;658730;-74
2024/01/21 05:50:34;;;;;;;32.77;12.97;;;-1.60;99.90;;;;;;4431856;28;659610;-74
2024/01/21 05:53:21;;;;;;;29.67;13.07;;;-1.60;99.90;;;;;;4457433;28;658678;-74
2024/01/21 05:56:09;;;;;;;32.90;12.77;;;-1.60;99.90;;;;;;4423652;28;659755;-74
2024/01/21 05:58:57;;;;;;;29.53;12.87;;;-1.50;99.90;;;;;;4446869;28;658291;-74
2024/01/21 06:01:48;;;;;;;33.93;13.97;;;-1.50;99.90;;;;;;4434568;28;659472;-74
2024/01/21 06:04:35;;;;;;;34.43;12.87;;;-1.60;99.90;;;;;;4425447;28;658837;-74
2024/01/21 06:07:23;;;;;;;34.50;14.47;;;-1.60;99.90;;;;;;4434572;27;659159;-74
2024/01/21 06:10:11;;;;;;;33.07;15.37;;;-1.60;99.90;;;;;;4451365;28;658398;-73
2024/01/21 06:12:58;;;;;;;37.00;16.57;;;-1.50;99.90;;;;;;4432702;28;658843;-73
2024/01/21 06:15:46;;;;;;;35.60;15.67;;;-1.60;99.90;;;;;;4444979;28;659540;-74
2024/01/21 06:18:35;;;;;;;33.43;14.97;;;-1.60;99.90;;;;;;4427454;28;658412;-73
2024/01/21 06:21:22;;;;;;;38.37;15.90;;;-1.70;99.90;;;;;;4452483;28;657951;-73
2024/01/21 06:24:09;;;;;;;33.70;15.03;;;-1.70;99.90;;;;;;4428903;28;658981;-73
2024/01/21 06:26:56;;;;;;;37.13;15.43;;;-1.70;99.90;;;;;;4445440;28;659088;-73
2024/01/21 06:29:44;;;;;;;39.97;15.93;;;-1.50;99.90;;;;;;4426462;27;658783;-74
2024/01/21 06:32:31;;;;;;;36.77;15.63;;;-1.50;99.90;;;;;;4457623;28;658507;-72
2024/01/21 06:35:20;;;;;;;36.75;14.65;;;-1.50;99.90;;;;;;4424941;27;659478;-73
2024/01/21 06:38:07;;;;;;;37.63;15.87;;;-1.60;99.90;;;;;;4425143;27;659088;-72
2024/01/21 06:40:55;;;;;;;42.33;16.53;;;-1.60;99.90;;;;;;4435260;28;658996;-74
2024/01/21 06:43:42;;;;;;;36.27;15.53;;;-1.50;99.90;;;;;;4448000;28;658089;-72
2024/01/21 06:46:29;;;;;;;39.13;16.43;;;-1.50;99.90;;;;;;4422536;28;658830;-73
2024/01/21 06:49:16;;;;;;;37.80;14.83;;;-1.40;99.90;;;;;;4445752;27;658295;-73
2024/01/21 06:52:07;;;;;;;40.77;15.50;;;-1.30;99.90;;;;;;4416412;28;658983;-73
2024/01/21 06:54:55;;;;;;;44.27;16.53;;;-1.40;99.90;;;;;;4425662;28;658768;-69
2024/01/21 06:57:42;;;;;;;39.67;16.93;;;-1.30;99.90;;;;;;4456780;28;657886;-69
2024/01/21 07:00:29;;;;;;;45.07;18.97;;;-1.30;99.90;;;;;;4429580;28;658768;-69
2024/01/21 07:03:17;;;;;;;40.40;17.23;;;-1.30;99.90;;;;;;4456536;28;658160;-69
2024/01/21 07:06:05;;;;;;;36.37;14.57;;;-1.20;99.90;;;;;;4418183;28;659509;-69
2024/01/21 07:08:55;;;;;;;33.07;15.53;;;-1.30;99.90;;;;;;4425676;28;658521;-69
2024/01/21 07:11:42;;;;;;;36.27;16.40;;;-1.20;99.90;;;;;;4433757;28;659206;-71
2024/01/21 07:14:34;;;;;;;48.93;20.67;;;-1.30;99.90;;;;;;4450346;28;658968;-70
2024/01/21 07:17:22;;;;;;;56.03;20.70;;;-1.30;99.90;;;;;;4432926;28;659169;-70
2024/01/21 07:20:11;;;;;;;58.43;23.50;;;-1.30;99.90;;;;;;4426930;28;659754;-69
2024/01/21 07:22:59;;;;;;;52.93;21.27;;;-1.20;99.90;;;;;;4423255;28;658520;-69
2024/01/21 07:25:48;;;;;;;47.50;20.80;;;-1.20;99.90;;;;;;4445606;28;658890;-69
2024/01/21 07:28:35;;;;;;;42.67;21.17;;;-1.20;99.90;;;;;;4431794;28;658877;-70
2024/01/21 07:31:23;;;;;;;43.53;19.83;;;-1.10;99.90;;;;;;4434421;28;658996;-70
2024/01/21 07:34:10;;;;;;;46.43;19.43;;;-1.10;99.90;;;;;;4456767;28;658267;-70
2024/01/21 07:36:57;;;;;;;47.63;20.50;;;-1.10;99.90;;;;;;4454189;28;658279;-71
2024/01/21 07:39:45;;;;;;;42.37;18.33;;;-0.90;99.90;;;;;;4458712;28;658913;-69
2024/01/21 07:42:34;;;;;;;45.87;18.60;;;-0.80;99.90;;;;;;4439187;28;658319;-70
2024/01/21 07:45:21;;;;;;;50.37;19.10;;;-0.70;99.90;;;;;;4454576;28;658117;-69
2024/01/21 07:48:09;;;;;;;37.23;16.33;;;-0.50;99.90;;;;;;4424021;28;659046;-70
2024/01/21 07:50:56;;;;;;;62.70;22.17;;;-0.50;99.90;;;;;;4440729;28;659350;-69
2024/01/21 07:53:43;;;;;;;63.73;21.80;;;-0.60;99.90;;;;;;4439909;28;658582;-69
2024/01/21 07:56:30;;;;;;;67.07;24.57;;;-0.50;99.90;;;;;;4456513;28;658290;-69
2024/01/21 07:59:19;;;;;;;70.77;25.27;;;-0.30;99.90;;;;;;4434635;28;658585;-70
2024/01/21 08:02:06;;;;;;;60.23;23.73;;;-0.20;99.90;;;;;;4440145;28;659584;-70
2024/01/21 08:04:53;;;;;;;54.70;22.80;;;-0.10;99.90;;;;;;4433010;28;659082;-70
2024/01/21 08:07:40;;;;;;;55.78;21.05;;;0.00;99.90;;;;;;4453951;28;658943;-69
2024/01/21 08:10:28;;;;;;;55.20;19.73;;;-0.10;99.90;;;;;;4433029;28;657458;-69
2024/01/21 08:13:15;;;;;;;55.53;21.53;;;0.00;99.90;;;;;;4434726;28;658819;-69
2024/01/21 08:16:04;;;;;;;48.85;19.10;;;0.00;99.90;;;;;;4421765;28;657693;-70
2024/01/21 08:18:52;;;;;;;46.33;19.03;;;0.10;99.90;;;;;;4457149;28;658500;-69
2024/01/21 08:21:39;;;;;;;52.77;20.37;;;0.30;99.90;;;;;;4427349;28;657885;-69
2024/01/21 08:24:26;;;;;;;60.57;23.20;;;0.40;99.90;;;;;;4440253;28;659113;-70
2024/01/21 08:27:13;;;;;;;61.90;22.73;;;0.50;99.90;;;;;;4431294;28;657719;-70
2024/01/21 08:30:02;;;;;;;53.17;21.48;;;0.60;99.90;;;;;;4459786;28;658194;-69
2024/01/21 08:32:51;;;;;;;56.70;21.27;;;0.70;99.90;;;;;;4435803;28;658190;-70
2024/01/21 08:35:40;;;;;;;58.00;20.93;;;0.80;99.90;;;;;;4435060;28;657781;-70
2024/01/21 08:38:27;;;;;;;57.53;22.07;;;0.90;99.90;;;;;;4448642;28;658243;-69
2024/01/21 08:41:14;;;;;;;59.57;23.73;;;0.90;99.90;;;;;;4429692;28;659449;-69
2024/01/21 08:44:01;;;;;;;53.63;21.73;;;1.00;99.90;;;;;;4449738;28;657701;-69
2024/01/21 08:46:49;;;;;;;53.03;19.57;;;1.00;99.90;;;;;;4437305;28;657612;-69
2024/01/21 08:49:37;;;;;;;55.57;21.40;;;1.20;99.90;;;;;;4440338;28;658037;-69
2024/01/21 08:52:24;;;;;;;37.57;14.07;;;0.90;99.90;;;;;;4432501;28;658087;-69
2024/01/21 08:55:12;;;;;;;33.33;14.60;;;0.70;99.90;;;;;;4453890;28;657113;-70
2024/01/21 08:57:59;;;;;;;36.40;15.07;;;0.90;99.90;;;;;;4421241;28;657999;-70
2024/01/21 09:00:46;;;;;;;35.37;12.83;;;1.10;99.90;;;;;;4458691;28;657724;-70
2024/01/21 09:03:33;;;;;;;39.70;13.77;;;1.10;99.90;;;;;;4441362;28;658262;-69
2024/01/21 09:06:22;;;;;;;32.17;12.43;;;1.10;99.90;;;;;;4459837;28;657775;-70
2024/01/21 09:09:11;;;;;;;31.60;12.73;;;1.10;99.90;;;;;;4431299;28;657789;-70
2024/01/21 09:11:59;;;;;;;37.63;13.50;;;1.20;99.90;;;;;;4436137;28;658025;-70
2024/01/21 09:14:46;;;;;;;35.33;13.33;;;1.10;99.90;;;;;;4450815;28;657704;-70
2024/01/21 09:17:33;;;;;;;32.37;11.63;;;1.10;99.90;;;;;;4423590;28;657451;-70
2024/01/21 09:20:21;;;;;;;41.67;16.43;;;1.40;99.90;;;;;;4455664;28;657933;-70
2024/01/21 09:23:09;;;;;;;40.63;14.43;;;1.30;99.90;;;;;;4432727;28;658438;-70
2024/01/21 09:25:56;;;;;;;36.50;14.57;;;0.90;99.90;;;;;;4458685;28;657061;-70
2024/01/21 09:28:44;;;;;;;34.80;14.10;;;0.90;99.90;;;;;;4441135;28;657304;-70
2024/01/21 09:31:31;;;;;;;37.37;14.97;;;0.80;99.90;;;;;;4454307;28;658464;-70
2024/01/21 09:34:18;;;;;;;32.63;12.37;;;1.00;99.90;;;;;;4432891;28;657554;-71
2024/01/21 09:37:05;;;;;;;34.73;13.40;;;1.30;99.90;;;;;;4458324;28;657167;-70
2024/01/21 09:39:54;;;;;;;36.25;11.10;;;1.40;99.90;;;;;;4431042;28;658109;-70
2024/01/21 09:42:41;;;;;;;14.40;5.83;;;1.30;99.90;;;;;;4448739;28;657249;-69
2024/01/21 09:45:29;;;;;;;28.20;10.73;;;1.20;99.90;;;;;;4429585;28;656422;-70
2024/01/21 09:48:16;;;;;;;35.83;13.83;;;1.20;99.90;;;;;;4448196;28;657774;-70
2024/01/21 09:51:03;;;;;;;20.13;6.60;;;1.30;99.90;;;;;;4433130;28;658129;-70
2024/01/21 09:53:51;;;;;;;16.27;5.50;;;1.40;99.90;;;;;;4461510;28;656825;-69
2024/01/21 09:56:39;;;;;;;21.07;8.27;;;1.40;99.90;;;;;;4436295;28;656740;-70
2024/01/21 09:59:26;;;;;;;30.23;11.30;;;1.30;99.90;;;;;;4457467;28;656077;-69
2024/01/21 10:02:16;;;;;;;29.90;13.03;;;1.40;99.90;;;;;;4437207;28;657517;-70
2024/01/21 10:05:04;;;;;;;33.30;11.33;;;1.40;99.90;;;;;;4432935;28;657999;-70
2024/01/21 10:07:51;;;;;;;35.10;11.30;;;1.70;99.90;;;;;;4444023;28;657651;-69
2024/01/21 10:10:38;;;;;;;28.70;10.47;;;1.90;99.90;;;;;;4433617;28;658013;-70
2024/01/21 10:13:26;;;;;;;30.23;10.50;;;1.90;99.90;;;;;;4460996;28;658010;-70
2024/01/21 10:16:14;;;;;;;31.67;10.63;;;2.00;99.90;;;;;;4405936;28;657685;-70
2024/01/21 10:19:02;;;;;;;24.03;6.50;;;2.10;99.90;;;;;;4454846;28;657715;-69
2024/01/21 10:21:49;;;;;;;14.17;4.53;;;2.10;99.90;;;;;;4432940;28;658022;-70
2024/01/21 10:24:38;;;;;;;31.57;8.93;;;1.90;99.90;;;;;;4445309;28;656698;-70
2024/01/21 10:27:25;;;;;;;23.03;8.63;;;1.90;99.90;;;;;;4427111;28;657179;-70
2024/01/21 10:30:15;;;;;;;21.90;8.77;;;2.20;99.90;;;;;;4436907;28;657041;-71
2024/01/21 10:33:02;;;;;;;14.53;4.13;;;2.00;99.90;;;;;;4456384;28;656677;-69
2024/01/21 10:35:49;;;;;;;8.63;3.83;;;2.40;99.90;;;;;;4434782;28;656389;-69
2024/01/21 10:38:41;;;;;;;25.10;9.90;;;2.30;99.90;;;;;;4454217;28;655332;-70
2024/01/21 10:41:30;;;;;;;24.08;8.88;;;2.30;99.90;;;;;;4406655;28;656534;-70
2024/01/21 10:44:18;;;;;;;27.10;8.90;;;2.50;99.90;;;;;;4436463;28;656432;-70
2024/01/21 10:47:08;;;;;;;24.10;8.87;;;2.40;99.90;;;;;;4450683;28;656668;-70
2024/01/21 10:49:55;;;;;;;23.10;8.90;;;2.60;99.90;;;;;;4427948;28;657184;-69
2024/01/21 10:52:44;;;;;;;30.33;9.40;;;2.90;99.90;;;;;;4455012;27;656980;-69
2024/01/21 10:55:32;;;;;;;27.63;8.30;;;3.10;99.90;;;;;;4453360;28;657510;-69
2024/01/21 10:58:19;;;;;;;26.97;10.40;;;3.50;99.90;;;;;;4438462;28;656917;-70
2024/01/21 11:01:06;;;;;;;22.77;8.80;;;3.90;99.90;;;;;;4446074;28;657193;-70
2024/01/21 11:04:07;;;;;;;26.37;7.07;;;6.50;99.90;;;;;;4441363;28;656947;-69
2024/01/21 11:06:54;;;;;;;20.23;7.87;;;7.90;73.60;;;;;;4438736;28;657059;-69
2024/01/21 11:09:41;;;;;;;21.27;7.30;;;8.00;71.00;;;;;;4454619;28;656542;-70
2024/01/21 11:12:29;;;;;;;21.63;8.03;;;8.00;66.10;;;;;;4437516;28;656719;-70
2024/01/21 11:15:28;;;;;;;18.50;7.53;;;7.50;74.50;;;;;;4455139;28;657130;-70
2024/01/21 11:18:15;;;;;;;22.90;8.57;;;8.20;66.00;;;;;;4424038;28;656561;-70
2024/01/21 11:21:04;;;;;;;18.13;7.60;;;8.70;67.60;;;;;;4435143;28;656228;-70
2024/01/21 11:23:59;;;;;;;19.73;6.90;;;8.90;61.10;;;;;;4438114;28;656736;-70
2024/01/21 11:26:47;;;;;;;14.47;6.43;;;9.70;60.80;;;;;;4441721;28;656757;-70
2024/01/21 11:29:35;;;;;;;18.27;6.93;;;9.80;56.90;;;;;;4438995;28;656841;-70
2024/01/21 11:32:24;;;;;;;19.63;7.40;;;9.00;58.90;;;;;;4448575;28;656432;-71
2024/01/21 11:35:14;;;;;;;17.90;7.30;;;10.50;57.00;;;;;;4431352;28;656870;-70
2024/01/21 11:38:03;;;;;;;19.00;7.27;;;12.00;53.00;;;;;;4419974;28;657853;-70
2024/01/21 11:41:00;;;;;;;27.43;9.90;;;11.90;48.60;;;;;;4437855;28;658486;-70
2024/01/21 11:43:48;;;;;;;29.90;10.30;;;12.10;49.90;;;;;;4411313;27;657852;-70
2024/01/21 11:46:35;;;;;;;25.40;10.03;;;12.60;48.10;;;;;;4449875;28;659851;-70
2024/01/21 11:49:22;;;;;;;20.07;8.70;;;13.10;46.50;;;;;;4438653;28;658528;-70
2024/01/21 11:52:11;;;;;;;19.93;8.43;;;12.30;47.40;;;;;;4463900;28;657866;-70
2024/01/21 11:54:59;;;;;;;14.87;6.80;;;13.90;46.40;;;;;;4442791;28;658009;-70
2024/01/21 11:57:46;;;;;;;15.15;6.18;;;12.60;42.00;;;;;;4453468;28;657707;-69
2024/01/21 12:00:34;;;;;;;19.73;6.97;;;12.30;45.50;;;;;;4427464;28;657876;-70
2024/01/21 12:03:21;;;;;;;18.63;6.50;;;13.10;46.80;;;;;;4452660;28;657457;-69
2024/01/21 12:06:08;;;;;;;18.73;6.67;;;10.40;44.90;;;;;;4429448;28;657718;-70
2024/01/21 12:08:55;;;;;;;23.57;6.23;;;12.20;47.10;;;;;;4455745;28;657545;-69
2024/01/21 12:11:44;;;;;;;16.17;6.20;;;12.60;45.10;;;;;;4436608;28;657498;-71
2024/01/21 12:14:31;;;;;;;14.73;5.50;;;12.20;45.80;;;;;;4459070;28;657314;-69
2024/01/21 12:17:18;;;;;;;11.37;4.57;;;11.90;46.10;;;;;;4430577;28;657410;-69
2024/01/21 12:20:06;;;;;;;13.40;4.90;;;11.60;46.80;;;;;;4459954;28;657956;-69
2024/01/21 12:22:54;;;;;;;13.67;5.57;;;12.80;45.90;;;;;;4431938;28;658266;-69
2024/01/21 12:25:41;;;;;;;11.53;4.10;;;12.50;45.90;;;;;;4439847;28;657985;-68
2024/01/21 12:28:30;;;;;;;10.00;3.37;;;11.90;45.50;;;;;;4434800;28;657092;-69
2024/01/21 12:31:17;;;;;;;7.80;2.73;;;10.70;48.00;;;;;;4437635;28;658325;-70
2024/01/21 12:34:06;;;;;;;18.80;4.73;;;9.90;50.50;;;;;;4457240;28;657399;-68
2024/01/21 12:36:53;;;;;;;14.47;4.27;;;10.50;49.80;;;;;;4436581;28;656723;-68
2024/01/21 12:39:40;;;;;;;14.13;5.33;;;10.40;50.40;;;;;;4449484;28;658182;-68
2024/01/21 12:42:27;;;;;;;10.77;5.20;;;10.50;49.00;;;;;;4428523;28;657729;-70
2024/01/21 12:45:16;;;;;;;14.20;6.40;;;11.10;49.10;;;;;;4449894;28;658621;-69
2024/01/21 12:48:04;;;;;;;17.70;7.03;;;12.30;47.00;;;;;;4423424;28;658031;-68
2024/01/21 12:50:51;;;;;;;20.60;6.97;;;12.60;46.70;;;;;;4458437;28;657528;-69
2024/01/21 12:53:39;;;;;;;16.13;6.67;;;13.40;44.90;;;;;;4416593;28;657954;-68
2024/01/21 12:56:26;;;;;;;21.57;7.80;;;12.30;44.20;;;;;;4453327;28;658734;-68
2024/01/21 12:59:13;;;;;;;16.80;7.93;;;13.20;44.10;;;;;;4424711;28;657353;-68
2024/01/21 13:02:02;;;;;;;20.23;8.60;;;13.30;43.40;;;;;;4449324;28;657806;-68
2024/01/21 13:04:49;;;;;;;24.93;8.87;;;12.90;43.00;;;;;;4432311;28;658417;-68
2024/01/21 13:07:36;;;;;;;17.87;7.97;;;12.10;44.40;;;;;;4449519;28;657436;-68
2024/01/21 13:10:24;;;;;;;17.87;7.17;;;12.00;45.10;;;;;;4436400;28;657727;-68
2024/01/21 13:13:11;;;;;;;18.87;8.03;;;12.40;45.60;;;;;;4446833;28;657473;-68
2024/01/21 13:15:58;;;;;;;20.33;8.23;;;12.30;45.20;;;;;;4426196;28;657466;-69
2024/01/21 13:18:47;;;;;;;23.50;8.97;;;12.10;45.70;;;;;;4450318;28;658194;-68
2024/01/21 13:21:34;;;;;;;21.00;9.13;;;12.30;44.90;;;;;;4433875;28;658162;-68
2024/01/21 13:24:21;;;;;;;25.27;11.30;;;12.40;45.50;;;;;;4452602;28;658162;-69
2024/01/21 13:27:11;;;;;;;26.20;11.63;;;12.50;45.50;;;;;;4435322;28;658615;-68
2024/01/21 13:33:03;;;;;;;33.97;13.30;;;12.50;44.20;;;;;;4426940;28;658520;-68
2024/01/21 13:35:52;;;;;;;34.33;12.97;;;12.10;45.20;;;;;;4454270;28;658999;-68
2024/01/21 13:38:39;;;;;;;32.93;13.43;;;11.10;46.00;;;;;;4433581;28;659367;-69
2024/01/21 13:41:26;;;;;;;30.00;12.55;;;11.20;48.10;;;;;;4455104;28;659084;-68
2024/01/21 13:44:14;;;;;;;31.97;13.20;;;10.60;48.20;;;;;;4422275;28;659593;-69
2024/01/21 13:47:01;;;;;;;30.90;13.03;;;10.40;48.20;;;;;;4461351;28;658521;-69
2024/01/21 13:49:48;;;;;;;33.92;15.13;;;10.40;48.70;;;;;;4432344;28;659083;-68
2024/01/21 13:52:37;;;;;;;36.93;14.30;;;10.10;48.70;;;;;;4450407;28;659625;-69
2024/01/21 13:55:24;;;;;;;31.20;14.03;;;9.00;52.80;;;;;;4413788;28;659546;-69
2024/01/21 13:58:13;;;;;;;35.90;14.13;;;9.50;53.20;;;;;;4451587;28;657871;-69
2024/01/21 14:01:01;;;;;;;33.63;13.37;;;9.50;52.40;;;;;;4429170;28;658257;-68
2024/01/21 14:03:48;;;;;;;38.10;14.47;;;9.10;53.20;;;;;;4445771;28;657758;-69
2024/01/21 14:06:35;;;;;;;37.13;13.97;;;8.10;55.10;;;;;;4453047;28;658636;-69
2024/01/21 14:09:24;;;;;;;34.45;13.65;;;8.70;56.80;;;;;;4439471;28;657952;-69